Anchor Point, Alaska
Current Conditions -  °F | °C
As of 4:53 AM on Thursday 18 Dec 2014 (Local Time) from PAHO Reporting Station
Overcast Overcast  
Wind Chill: 30°   Ceiling: 6000
Heat Index: 37°   Visibility: 10mi
Dew Point: 32°   Wind: 9mph
Humidity: 82%   Direction: 60°ENE
Pressure: 29.43"   Gusts: NA
Location:  59.77°N, 151.82°W
Report Text: PAHO 181353Z AUTO 06008KT 10SM BKN060 OVC070 03/00 A2943 RMK AO2 SLP966 T00280000 TSNO
Loading
Personal Weather Stations






























Interactive Weather Map New forecast layout! Learn more

10-Day Weather Forecast

Advertisements
Track Severe Weather on mobile